Jay Michael — WDD2051 — position and weather

sailwx.info

Track history (hours):
 
Tides and Currents Weather Stations Pressure Air Temp Water Temp Dewpoint Dewpoint Depression Visibility Wind Speed Wind Dir Waves Ship Positions

Jay Michael

Owner: Sterling Equipment Inc., Quincy, MA. More information available from US FCC via Universal Licensing System and Coast Guard Vessel Documentation Center.

Last reported at 2017-Apr-05 13:57 UTC. Time now 2017-Apr-25 16:33 UTC.
Position N 42°15' W 070°58'.
Warning: this ship's position is 20 days out of date.

Length 21 m; draft 2.5 m.

Type: Tug. MMSI: 367110280.

Date/timePositionNaut miles runAvg speedWind from/ knotsBaromVisibWave heightAir tempDewpointWater temp
2017-Apr-05 13:57N 42°15' W 070°58'0 0.0
2017-Apr-05 13:30N 42°15' W 070°58'0 0.0
2017-Apr-05 13:00N 42°15' W 070°58'0 0.0
2017-Apr-05 12:29N 42°15' W 070°58'0 0.0
2017-Apr-05 11:59N 42°15' W 070°58'0 0.0
2017-Apr-05 06:34N 42°15' W 070°58'0 0.0
2017-Apr-05 06:30N 42°15' W 070°58'0 0.0
2017-Apr-04 13:37N 42°15' W 070°58'0 0.0
2017-Apr-04 13:11N 42°15' W 070°58'0 0.0
2017-Apr-04 09:51N 42°15' W 070°58'0 0.0
2017-Apr-04 09:22N 42°15' W 070°58'0 0.0
2017-Apr-04 08:58N 42°15' W 070°58'0 0.0
2017-Apr-04 08:29N 42°15' W 070°58'0 0.0
2017-Apr-04 07:57N 42°15' W 070°58'0 0.0
2017-Apr-04 07:29N 42°15' W 070°58'0 0.0
2017-Apr-04 07:00N 42°15' W 070°58'0 0.0
2017-Apr-04 06:30N 42°15' W 070°58'0 0.0
2017-Apr-04 06:00N 42°15' W 070°58'0 0.0
2017-Apr-04 05:14N 42°15' W 070°58'0 0.0
2017-Apr-04 05:00N 42°15' W 070°58'0 0.0
2017-Apr-04 04:28N 42°15' W 070°58'0 0.0
2017-Apr-04 04:00N 42°15' W 070°58'0 0.0
2017-Apr-04 03:30N 42°15' W 070°58'0 0.0
2017-Apr-04 02:59N 42°15' W 070°58'0 0.0
2017-Apr-04 02:30N 42°15' W 070°58'0 0.0
2017-Apr-04 01:56N 42°15' W 070°58'0 0.0
2017-Apr-04 01:30N 42°15' W 070°58'0 0.0
2017-Apr-04 00:59N 42°15' W 070°58'0 0.0
2017-Apr-04 00:20N 42°15' W 070°58'0 0.0
2017-Apr-04 00:00N 42°15' W 070°58'0 0.0
2017-Apr-03 23:30N 42°15' W 070°58'0 0.0
2017-Apr-03 23:00N 42°15' W 070°58'0 0.0
2017-Apr-03 22:29N 42°15' W 070°58'0 0.0
2017-Apr-03 21:57N 42°15' W 070°58'0 0.0
2017-Apr-03 20:33N 42°15' W 070°58'0 0.0
2017-Apr-03 18:43N 42°15' W 070°58'0 0.0
2017-Apr-03 14:40N 42°15' W 070°58'0 0.0
2017-Apr-03 13:22N 42°15' W 070°58'0 0.0
2017-Apr-03 10:59N 42°15' W 070°58'0 0.0
2017-Apr-03 10:26N 42°15' W 070°58'0 0.0
2017-Apr-03 09:26N 42°15' W 070°58'0 0.0
2017-Apr-03 04:57N 42°15' W 070°58'0 0.0
2017-Apr-03 04:30N 42°15' W 070°58'0 0.0
2017-Apr-03 04:00N 42°15' W 070°58'0 0.0
2017-Apr-03 02:35N 42°15' W 070°58'0 0.0
2017-Apr-03 02:15N 42°15' W 070°58'0 0.0
2017-Apr-03 02:00N 42°15' W 070°58'0 0.0
2017-Apr-03 01:30N 42°15' W 070°58'0 0.0
2017-Apr-03 01:00N 42°15' W 070°58'0 0.0
2017-Apr-03 00:27N 42°15' W 070°58'0 0.0
2017-Apr-02 22:38N 42°15' W 070°58'0 0.0
2017-Apr-02 22:27N 42°15' W 070°58'0 0.0
2017-Apr-02 22:00N 42°15' W 070°58'0 0.0
2017-Apr-02 21:29N 42°15' W 070°58'0 0.0
2017-Apr-01 17:26N 42°15' W 070°58'0 0.0
2017-Apr-01 10:57N 42°15' W 070°58'  
2017-Mar-29 10:16N 42°15' W 070°58'0 0.0
2017-Mar-29 09:33N 42°15' W 070°58'0 0.0
2017-Mar-29 00:11N 42°15' W 070°58'0 0.1
2017-Mar-28 23:06N 42°15' W 070°58'2 3.6
2017-Mar-28 22:33N 42°16' W 070°56'3 3.0
2017-Mar-28 21:33N 42°19' W 070°56'2 2.3
2017-Mar-28 20:33N 42°21' W 070°56'4 3.8
2017-Mar-28 19:33N 42°24' W 070°53'5 5.2
2017-Mar-28 18:33N 42°29' W 070°49'4 3.9
2017-Mar-28 17:33N 42°32' W 070°51'1 1.4
2017-Mar-28 16:33N 42°31' W 070°53'0 0.0
2017-Mar-28 15:33N 42°31' W 070°53'0 0.0
2017-Mar-28 14:33N 42°31' W 070°53'2 2.3
2017-Mar-28 13:33N 42°31' W 070°50'7 7.5
2017-Mar-28 12:33N 42°24' W 070°53'7 7.1
2017-Mar-28 11:33N 42°18' W 070°56'3 0.2
2017-Mar-27 21:27N 42°15' W 070°58'4 4.4
2017-Mar-27 20:33N 42°19' W 070°56'3 3.3
2017-Mar-27 19:33N 42°22' W 070°55'4 4.1
2017-Mar-27 18:33N 42°25' W 070°52'4 4.1
2017-Mar-27 17:33N 42°28' W 070°48'3 3.2
2017-Mar-27 16:33N 42°31' W 070°50'2 2.3
2017-Mar-27 15:33N 42°31' W 070°53'2 2.0
2017-Mar-27 14:33N 42°32' W 070°50'7 7.3
2017-Mar-27 13:33N 42°25' W 070°52'7 7.2
2017-Mar-27 12:33N 42°19' W 070°56'4 1.0
2017-Mar-27 08:18N 42°15' W 070°58'0 0.0
2017-Mar-27 06:31N 42°15' W 070°58'0 0.0
2017-Mar-27 05:10N 42°15' W 070°58'  
Track history (hours):
 
Tides and Currents Weather Stations Pressure Air Temp Water Temp Dewpoint Dewpoint Depression Visibility Wind Speed Wind Dir Waves Ship Positions

Jay Michael

Owner: Sterling Equipment Inc., Quincy, MA. More information available from US FCC via Universal Licensing System and Coast Guard Vessel Documentation Center.

Last reported at 2017-Apr-05 13:57 UTC. Time now 2017-Apr-25 16:33 UTC.
Position N 42°15' W 070°58'.
Warning: this ship's position is 20 days out of date.

Length 21 m; draft 2.5 m.

Type: Tug. MMSI: 367110280.

Date/timePositionNaut miles runAvg speedWind from/ knotsBaromVisibWave heightAir tempDewpointWater temp
2017-Apr-05 13:57N 42°15' W 070°58'0 0.0
2017-Apr-05 13:30N 42°15' W 070°58'0 0.0
2017-Apr-05 13:00N 42°15' W 070°58'0 0.0
2017-Apr-05 12:29N 42°15' W 070°58'0 0.0
2017-Apr-05 11:59N 42°15' W 070°58'0 0.0
2017-Apr-05 06:34N 42°15' W 070°58'0 0.0
2017-Apr-05 06:30N 42°15' W 070°58'0 0.0
2017-Apr-04 13:37N 42°15' W 070°58'0 0.0
2017-Apr-04 13:11N 42°15' W 070°58'0 0.0
2017-Apr-04 09:51N 42°15' W 070°58'0 0.0
2017-Apr-04 09:22N 42°15' W 070°58'0 0.0
2017-Apr-04 08:58N 42°15' W 070°58'0 0.0
2017-Apr-04 08:29N 42°15' W 070°58'0 0.0
2017-Apr-04 07:57N 42°15' W 070°58'0 0.0
2017-Apr-04 07:29N 42°15' W 070°58'0 0.0
2017-Apr-04 07:00N 42°15' W 070°58'0 0.0
2017-Apr-04 06:30N 42°15' W 070°58'0 0.0
2017-Apr-04 06:00N 42°15' W 070°58'0 0.0
2017-Apr-04 05:14N 42°15' W 070°58'0 0.0
2017-Apr-04 05:00N 42°15' W 070°58'0 0.0
2017-Apr-04 04:28N 42°15' W 070°58'0 0.0
2017-Apr-04 04:00N 42°15' W 070°58'0 0.0
2017-Apr-04 03:30N 42°15' W 070°58'0 0.0
2017-Apr-04 02:59N 42°15' W 070°58'0 0.0
2017-Apr-04 02:30N 42°15' W 070°58'0 0.0
2017-Apr-04 01:56N 42°15' W 070°58'0 0.0
2017-Apr-04 01:30N 42°15' W 070°58'0 0.0
2017-Apr-04 00:59N 42°15' W 070°58'0 0.0
2017-Apr-04 00:20N 42°15' W 070°58'0 0.0
2017-Apr-04 00:00N 42°15' W 070°58'0 0.0
2017-Apr-03 23:30N 42°15' W 070°58'0 0.0
2017-Apr-03 23:00N 42°15' W 070°58'0 0.0
2017-Apr-03 22:29N 42°15' W 070°58'0 0.0
2017-Apr-03 21:57N 42°15' W 070°58'0 0.0
2017-Apr-03 20:33N 42°15' W 070°58'0 0.0
2017-Apr-03 18:43N 42°15' W 070°58'0 0.0
2017-Apr-03 14:40N 42°15' W 070°58'0 0.0
2017-Apr-03 13:22N 42°15' W 070°58'0 0.0
2017-Apr-03 10:59N 42°15' W 070°58'0 0.0
2017-Apr-03 10:26N 42°15' W 070°58'0 0.0
2017-Apr-03 09:26N 42°15' W 070°58'0 0.0
2017-Apr-03 04:57N 42°15' W 070°58'0 0.0
2017-Apr-03 04:30N 42°15' W 070°58'0 0.0
2017-Apr-03 04:00N 42°15' W 070°58'0 0.0
2017-Apr-03 02:35N 42°15' W 070°58'0 0.0
2017-Apr-03 02:15N 42°15' W 070°58'0 0.0
2017-Apr-03 02:00N 42°15' W 070°58'0 0.0
2017-Apr-03 01:30N 42°15' W 070°58'0 0.0
2017-Apr-03 01:00N 42°15' W 070°58'0 0.0
2017-Apr-03 00:27N 42°15' W 070°58'0 0.0
2017-Apr-02 22:38N 42°15' W 070°58'0 0.0
2017-Apr-02 22:27N 42°15' W 070°58'0 0.0
2017-Apr-02 22:00N 42°15' W 070°58'0 0.0
2017-Apr-02 21:29N 42°15' W 070°58'0 0.0
2017-Apr-01 17:26N 42°15' W 070°58'0 0.0
2017-Apr-01 10:57N 42°15' W 070°58'  
2017-Mar-29 10:16N 42°15' W 070°58'0 0.0
2017-Mar-29 09:33N 42°15' W 070°58'0 0.0
2017-Mar-29 00:11N 42°15' W 070°58'0 0.1
2017-Mar-28 23:06N 42°15' W 070°58'2 3.6
2017-Mar-28 22:33N 42°16' W 070°56'3 3.0
2017-Mar-28 21:33N 42°19' W 070°56'2 2.3
2017-Mar-28 20:33N 42°21' W 070°56'4 3.8
2017-Mar-28 19:33N 42°24' W 070°53'5 5.2
2017-Mar-28 18:33N 42°29' W 070°49'4 3.9
2017-Mar-28 17:33N 42°32' W 070°51'1 1.4
2017-Mar-28 16:33N 42°31' W 070°53'0 0.0
2017-Mar-28 15:33N 42°31' W 070°53'0 0.0
2017-Mar-28 14:33N 42°31' W 070°53'2 2.3
2017-Mar-28 13:33N 42°31' W 070°50'7 7.5
2017-Mar-28 12:33N 42°24' W 070°53'7 7.1
2017-Mar-28 11:33N 42°18' W 070°56'3 0.2
2017-Mar-27 21:27N 42°15' W 070°58'4 4.4
2017-Mar-27 20:33N 42°19' W 070°56'3 3.3
2017-Mar-27 19:33N 42°22' W 070°55'4 4.1
2017-Mar-27 18:33N 42°25' W 070°52'4 4.1
2017-Mar-27 17:33N 42°28' W 070°48'3 3.2
2017-Mar-27 16:33N 42°31' W 070°50'2 2.3
2017-Mar-27 15:33N 42°31' W 070°53'2 2.0
2017-Mar-27 14:33N 42°32' W 070°50'7 7.3
2017-Mar-27 13:33N 42°25' W 070°52'7 7.2
2017-Mar-27 12:33N 42°19' W 070°56'4 1.0
2017-Mar-27 08:18N 42°15' W 070°58'0 0.0
2017-Mar-27 06:31N 42°15' W 070°58'0 0.0
2017-Mar-27 05:10N 42°15' W 070°58'  

Dump ship's entire track history